Time;durP1;ratioP1;P1;durP2;ratioP2;P2;SDS_P1;SDS_P2;PMS_P1;PMS_P2;Temp;Humidity;BMP_temperature;BMP_pressure;BME280_temperature;BME280_humidity;BME280_pressure;Samples;Min_cycle;Max_cycle;Signal;HPM_P1;HPM_P2
2022/04/16 00:00:09;;;;;;;6.37;3.03;;;8.50;99.90;;;;;;5082556;28;21066;-91
2022/04/16 00:02:34;;;;;;;3.60;3.20;;;8.60;99.90;;;;;;5065325;28;20272;-91
2022/04/16 00:05:00;;;;;;;5.47;3.37;;;8.50;99.90;;;;;;5065648;28;20307;-90
2022/04/16 00:07:26;;;;;;;6.90;3.83;;;8.50;99.90;;;;;;5065899;28;20229;-91
2022/04/16 00:09:52;;;;;;;9.20;5.27;;;8.60;99.90;;;;;;5064636;28;20327;-91
2022/04/16 00:12:17;;;;;;;4.53;3.60;;;8.60;99.90;;;;;;5065762;28;20221;-90
2022/04/16 00:14:43;;;;;;;3.47;3.07;;;8.60;99.90;;;;;;5048875;28;20282;-90
2022/04/16 00:17:09;;;;;;;7.60;4.27;;;8.60;99.90;;;;;;5066214;28;20193;-90
2022/04/16 00:19:36;;;;;;;16.17;3.63;;;8.60;99.90;;;;;;5081961;28;20229;-91
2022/04/16 00:22:07;;;;;;;6.13;3.67;;;8.70;99.90;;;;;;5065261;28;20701;-91
2022/04/16 00:24:33;;;;;;;7.33;3.87;;;8.70;99.90;;;;;;5048753;28;20233;-88
2022/04/16 00:27:02;;;;;;;7.13;3.63;;;8.70;99.90;;;;;;5047958;28;20232;-88
2022/04/16 00:29:29;;;;;;;7.27;5.10;;;8.70;99.90;;;;;;5064164;28;20276;-88
2022/04/16 00:31:54;;;;;;;4.53;3.37;;;8.70;99.90;;;;;;5082781;28;20201;-87
2022/04/16 00:34:20;;;;;;;6.47;4.87;;;8.70;99.90;;;;;;5065059;28;20701;-88
2022/04/16 00:36:47;;;;;;;5.07;3.53;;;8.70;99.90;;;;;;5047706;28;20284;-89
2022/04/16 00:39:13;;;;;;;4.87;3.73;;;8.60;99.90;;;;;;5081889;28;20216;-89
2022/04/16 00:41:43;;;;;;;5.23;3.03;;;8.60;99.90;;;;;;5065199;28;20221;-89
2022/04/16 00:44:09;;;;;;;5.33;3.73;;;8.50;99.90;;;;;;5066188;28;20208;-89
2022/04/16 00:46:36;;;;;;;5.37;3.73;;;8.50;99.90;;;;;;5082098;28;20593;-89
2022/04/16 00:49:02;;;;;;;3.73;3.40;;;8.40;99.90;;;;;;5047662;28;20688;-89
2022/04/16 00:51:30;;;;;;;8.10;2.93;;;8.40;99.90;;;;;;5064486;28;20232;-89
2022/04/16 00:53:55;;;;;;;3.43;3.07;;;8.50;99.90;;;;;;5047975;28;20489;-88
2022/04/16 00:56:22;;;;;;;5.97;3.87;;;8.50;99.90;;;;;;5065035;28;20193;-89
2022/04/16 00:58:47;;;;;;;5.47;3.40;;;8.60;99.90;;;;;;5065982;28;20186;-88
2022/04/16 01:01:13;;;;;;;5.13;3.83;;;8.60;99.90;;;;;;5048128;28;21156;-88
2022/04/16 01:03:43;;;;;;;8.13;4.97;;;8.60;99.90;;;;;;5066563;28;20221;-89
2022/04/16 01:06:14;;;;;;;5.10;3.77;;;8.60;99.90;;;;;;5047837;28;20340;-89
2022/04/16 01:08:44;;;;;;;4.40;3.27;;;8.50;99.90;;;;;;5066367;28;20224;-89
2022/04/16 01:11:10;;;;;;;9.23;4.40;;;8.50;99.90;;;;;;5064921;28;20196;-88
2022/04/16 01:13:37;;;;;;;5.47;3.93;;;8.40;99.90;;;;;;5064962;28;20391;-90
2022/04/16 01:16:05;;;;;;;7.63;4.40;;;8.50;99.90;;;;;;5047763;28;20272;-89
2022/04/16 01:18:31;;;;;;;5.63;4.27;;;8.50;99.90;;;;;;5047923;28;20326;-89
2022/04/16 01:20:57;;;;;;;7.60;4.63;;;8.50;99.90;;;;;;5047740;28;20750;-88
2022/04/16 01:23:23;;;;;;;7.37;4.47;;;8.40;99.90;;;;;;5047771;28;20193;-89
2022/04/16 01:25:49;;;;;;;8.50;5.17;;;8.40;99.90;;;;;;5064978;28;20308;-89
2022/04/16 01:28:15;;;;;;;6.73;5.00;;;8.40;99.90;;;;;;5047582;28;20237;-89
2022/04/16 01:30:41;;;;;;;5.87;4.53;;;8.40;99.90;;;;;;5064504;28;20938;-89
2022/04/16 01:33:06;;;;;;;8.93;6.80;;;8.40;99.90;;;;;;5048131;28;20217;-89
2022/04/16 01:35:32;;;;;;;6.33;4.43;;;8.40;99.90;;;;;;5064380;28;20672;-89
2022/04/16 01:37:58;;;;;;;4.97;3.80;;;8.50;99.90;;;;;;5053076;28;20201;-89
2022/04/16 01:40:27;;;;;;;4.97;3.60;;;8.50;99.90;;;;;;5081154;28;20225;-89
2022/04/16 01:42:56;;;;;;;4.20;3.83;;;8.60;99.90;;;;;;5050916;28;20217;-89
2022/04/16 01:45:23;;;;;;;5.53;4.00;;;8.60;99.90;;;;;;5051234;28;20720;-88
2022/04/16 01:47:50;;;;;;;8.07;4.53;;;8.60;99.90;;;;;;5068505;28;20221;-89
2022/04/16 01:50:16;;;;;;;6.60;4.70;;;8.70;99.90;;;;;;5069810;28;20186;-88
2022/04/16 01:52:42;;;;;;;6.90;4.50;;;8.70;99.90;;;;;;5058402;28;20258;-88
2022/04/16 01:55:10;;;;;;;8.83;4.80;;;8.70;99.90;;;;;;5051218;28;20221;-89
2022/04/16 01:57:37;;;;;;;7.07;4.50;;;8.60;99.90;;;;;;5068981;28;20221;-89
2022/04/16 02:00:06;;;;;;;9.73;4.83;;;8.60;99.90;;;;;;5084165;28;20693;-88
2022/04/16 02:02:33;;;;;;;4.70;4.17;;;8.60;99.90;;;;;;5075227;28;20189;-89
2022/04/16 02:05:00;;;;;;;6.07;4.27;;;8.60;99.90;;;;;;5068637;28;20209;-87
2022/04/16 02:07:25;;;;;;;13.37;4.67;;;8.60;99.90;;;;;;5067690;28;20221;-89
2022/04/16 02:09:51;;;;;;;7.20;4.20;;;8.60;99.90;;;;;;5051301;28;20225;-90
2022/04/16 02:12:17;;;;;;;7.43;5.00;;;8.60;99.90;;;;;;5065804;28;20232;-91
2022/04/16 02:14:42;;;;;;;9.83;4.50;;;8.60;99.90;;;;;;5067911;28;20590;-89
2022/04/16 02:17:08;;;;;;;5.93;4.07;;;8.60;99.90;;;;;;5051215;28;20603;-88
2022/04/16 02:19:36;;;;;;;9.40;4.67;;;8.60;99.90;;;;;;5067743;28;20253;-90
2022/04/16 02:22:02;;;;;;;4.87;3.67;;;8.60;99.90;;;;;;5051085;28;20243;-88
2022/04/16 02:24:28;;;;;;;15.93;4.27;;;8.60;99.90;;;;;;5050323;28;20351;-88
2022/04/16 02:26:55;;;;;;;13.10;5.10;;;8.60;99.90;;;;;;5067663;28;20331;-90
2022/04/16 02:29:21;;;;;;;6.80;4.20;;;8.60;99.90;;;;;;5043265;28;20560;-89
2022/04/16 02:31:47;;;;;;;5.87;3.87;;;8.50;99.90;;;;;;5068241;28;20204;-89
2022/04/16 02:34:13;;;;;;;7.93;5.83;;;8.50;99.90;;;;;;5067633;28;20217;-89
2022/04/16 02:36:40;;;;;;;7.57;4.43;;;8.40;99.90;;;;;;5067648;28;20224;-89
2022/04/16 02:39:08;;;;;;;8.03;5.70;;;8.40;99.90;;;;;;5068018;28;21001;-90
2022/04/16 02:41:34;;;;;;;6.60;4.60;;;8.40;99.90;;;;;;5051010;28;20191;-90
2022/04/16 02:44:00;;;;;;;6.73;5.23;;;8.40;99.90;;;;;;5043400;28;21102;-88
2022/04/16 02:49:12;;;;;;;8.93;4.80;;;8.30;99.90;;;;;;5067428;28;20979;-90
2022/04/16 02:51:38;;;;;;;7.20;4.77;;;8.30;99.90;;;;;;5058386;28;20220;-90
2022/04/16 02:54:05;;;;;;;11.87;5.03;;;8.30;99.90;;;;;;5065929;28;20220;-90
2022/04/16 02:56:32;;;;;;;11.87;6.97;;;8.20;99.90;;;;;;5066568;28;20588;-90
2022/04/16 02:58:57;;;;;;;8.30;5.23;;;8.20;99.90;;;;;;5081724;28;21036;-88
2022/04/16 03:01:23;;;;;;;4.20;3.60;;;8.20;99.90;;;;;;5066624;28;20209;-90
2022/04/16 03:03:49;;;;;;;7.30;4.47;;;8.20;99.90;;;;;;5050112;28;20247;-90
2022/04/16 03:06:15;;;;;;;5.50;4.30;;;8.10;99.90;;;;;;5066802;28;20256;-90
2022/04/16 03:08:41;;;;;;;6.97;5.40;;;8.10;99.90;;;;;;5067574;28;20228;-90
2022/04/16 03:11:06;;;;;;;10.97;4.80;;;8.10;99.90;;;;;;5067460;28;20193;-89
2022/04/16 03:13:35;;;;;;;10.67;6.20;;;8.00;99.90;;;;;;5083486;28;20786;-89
2022/04/16 03:18:46;;;;;;;9.63;5.70;;;7.90;99.90;;;;;;5080807;28;20217;-89
2022/04/16 03:21:13;;;;;;;6.63;5.83;;;7.90;99.90;;;;;;5063795;28;20443;-90
2022/04/16 03:23:39;;;;;;;8.33;4.80;;;7.90;99.90;;;;;;5054937;28;20637;-90
2022/04/16 03:26:05;;;;;;;8.83;5.53;;;7.90;99.90;;;;;;5081068;28;20225;-90
2022/04/16 03:28:32;;;;;;;10.63;5.43;;;7.90;99.90;;;;;;5046793;28;20306;-89
2022/04/16 03:30:58;;;;;;;6.80;4.63;;;7.90;99.90;;;;;;5083011;28;20225;-90
2022/04/16 03:33:24;;;;;;;8.23;4.73;;;7.90;99.90;;;;;;5066291;28;20231;-89
2022/04/16 03:35:51;;;;;;;6.87;4.50;;;7.90;99.90;;;;;;5083256;28;20217;-87
2022/04/16 03:38:18;;;;;;;6.60;4.40;;;7.90;99.90;;;;;;5065883;28;20259;-89
2022/04/16 03:40:44;;;;;;;8.10;7.03;;;7.90;99.90;;;;;;5049764;28;20185;-89
2022/04/16 03:43:10;;;;;;;12.00;6.23;;;7.90;99.90;;;;;;5065241;28;20274;-90
2022/04/16 03:45:37;;;;;;;7.90;6.47;;;7.90;99.90;;;;;;5066785;28;20807;-90
2022/04/16 03:48:04;;;;;;;6.47;5.87;;;7.80;99.90;;;;;;5048395;28;20217;-89
2022/04/16 03:50:31;;;;;;;10.73;5.80;;;7.80;99.90;;;;;;5066676;28;20197;-91
2022/04/16 03:52:58;;;;;;;8.43;4.93;;;7.90;99.90;;;;;;5065335;28;20192;-90
2022/04/16 04:00:57;;;;;;;7.80;4.47;;;7.80;99.90;;;;;;5067022;28;20216;-89
2022/04/16 04:03:23;;;;;;;13.13;7.90;;;7.80;99.90;;;;;;5042866;28;20304;-90
2022/04/16 04:05:53;;;;;;;10.67;7.23;;;7.80;99.90;;;;;;5067036;28;20233;-88
2022/04/16 04:08:20;;;;;;;8.93;5.97;;;7.70;99.90;;;;;;5049038;28;20185;-89
2022/04/16 04:10:46;;;;;;;10.30;6.37;;;7.70;99.90;;;;;;5066325;28;20201;-88
2022/04/16 04:13:13;;;;;;;8.97;5.57;;;7.70;99.90;;;;;;5065094;28;20689;-90
2022/04/16 04:15:39;;;;;;;9.43;6.07;;;7.70;99.90;;;;;;5041057;28;20217;-90
2022/04/16 04:18:06;;;;;;;13.93;5.73;;;7.70;99.90;;;;;;5057890;28;20241;-90
2022/04/16 04:20:34;;;;;;;11.97;6.63;;;7.60;99.90;;;;;;5066139;28;20185;-91
2022/04/16 04:23:00;;;;;;;9.47;5.57;;;7.50;99.90;;;;;;5049789;28;20200;-90
2022/04/16 04:25:26;;;;;;;5.97;5.20;;;7.50;99.90;;;;;;5081875;28;20252;-90
2022/04/16 04:27:52;;;;;;;8.27;5.17;;;7.50;99.90;;;;;;5065241;28;20229;-91
2022/04/16 04:30:19;;;;;;;6.30;4.90;;;7.50;99.90;;;;;;5048825;28;20244;-90
2022/04/16 04:32:44;;;;;;;9.87;6.50;;;7.50;99.90;;;;;;5048257;28;20229;-91
2022/04/16 04:35:10;;;;;;;5.87;4.97;;;7.50;99.90;;;;;;5066046;28;20200;-91
2022/04/16 04:37:36;;;;;;;9.23;4.87;;;7.50;99.90;;;;;;5082470;28;20221;-90
2022/04/16 04:40:03;;;;;;;9.57;5.57;;;7.50;99.90;;;;;;5066309;28;20237;-90
2022/04/16 04:42:34;;;;;;;5.53;3.57;;;7.50;99.90;;;;;;5081969;28;21098;-91
2022/04/16 04:45:07;;;;;;;14.13;4.10;;;7.50;99.90;;;;;;5063904;28;20229;-91
2022/04/16 04:47:33;;;;;;;4.83;3.13;;;7.40;99.90;;;;;;5057453;28;20264;-89
2022/04/16 04:49:59;;;;;;;7.37;3.33;;;7.40;99.90;;;;;;5048186;28;20704;-92
2022/04/16 04:52:30;;;;;;;8.40;5.33;;;7.40;99.90;;;;;;5048224;28;20560;-90
2022/04/16 04:54:57;;;;;;;8.73;6.33;;;7.40;99.90;;;;;;5054730;28;20221;-91
2022/04/16 04:57:23;;;;;;;10.83;6.07;;;7.40;99.90;;;;;;5056960;28;20231;-90
2022/04/16 04:59:49;;;;;;;5.43;4.57;;;7.40;99.90;;;;;;5048359;28;20227;-91
2022/04/16 05:02:15;;;;;;;5.33;4.83;;;7.50;99.90;;;;;;5066761;28;20202;-90
2022/04/16 05:04:42;;;;;;;5.30;4.77;;;7.50;99.90;;;;;;5065138;28;20312;-91
2022/04/16 05:07:09;;;;;;;5.50;4.47;;;7.60;99.90;;;;;;5064765;28;20228;-90
2022/04/16 05:09:35;;;;;;;4.77;4.23;;;7.70;99.90;;;;;;5048175;28;20213;-90
2022/04/16 05:12:01;;;;;;;10.10;6.27;;;7.70;99.90;;;;;;5064343;28;20239;-90
2022/04/16 05:14:27;;;;;;;7.17;3.90;;;7.80;99.90;;;;;;5047475;28;20282;-89
2022/04/16 05:16:54;;;;;;;7.47;6.10;;;7.90;99.90;;;;;;5052127;28;20290;-89
2022/04/16 05:19:20;;;;;;;11.10;6.67;;;7.90;99.90;;;;;;5084917;28;20861;-90
2022/04/16 05:21:46;;;;;;;6.93;5.33;;;7.90;99.90;;;;;;5068476;28;20220;-90
2022/04/16 05:24:12;;;;;;;10.17;6.17;;;7.90;99.90;;;;;;5059344;28;20704;-90
2022/04/16 05:26:38;;;;;;;7.13;5.27;;;7.90;99.90;;;;;;5085263;28;20286;-90
2022/04/16 05:29:04;;;;;;;8.33;4.57;;;8.00;99.90;;;;;;5068023;28;20189;-91
2022/04/16 05:31:30;;;;;;;8.70;5.33;;;8.00;99.90;;;;;;5051463;28;20225;-91
2022/04/16 05:36:42;;;;;;;7.47;4.73;;;8.20;99.90;;;;;;5069517;28;20221;-89
2022/04/16 05:39:09;;;;;;;10.23;5.17;;;8.20;99.90;;;;;;5069099;28;20221;-89
2022/04/16 05:41:34;;;;;;;7.37;5.93;;;8.20;99.90;;;;;;5068200;28;20182;-90
2022/04/16 05:44:02;;;;;;;10.63;5.00;;;8.20;99.90;;;;;;5069474;28;20192;-90
2022/04/16 05:46:28;;;;;;;9.60;6.67;;;8.20;99.90;;;;;;5076465;28;20248;-90
2022/04/16 05:48:53;;;;;;;9.83;6.30;;;8.20;99.90;;;;;;5068371;28;20689;-89
2022/04/16 05:51:21;;;;;;;8.90;5.53;;;8.30;99.90;;;;;;5085140;28;20227;-90
2022/04/16 05:53:49;;;;;;;10.83;6.47;;;8.40;99.90;;;;;;5061556;28;20240;-90
2022/04/16 05:56:16;;;;;;;12.33;7.03;;;8.40;99.90;;;;;;5068083;28;20193;-91
2022/04/16 05:58:42;;;;;;;7.47;5.53;;;8.50;99.90;;;;;;5069738;28;20252;-91
2022/04/16 06:01:09;;;;;;;11.90;7.00;;;8.50;99.90;;;;;;5067530;28;20252;-90
2022/04/16 06:03:41;;;;;;;11.47;7.73;;;8.50;99.90;;;;;;5051266;28;20308;-90
2022/04/16 06:06:08;;;;;;;10.20;6.37;;;8.50;99.90;;;;;;5049380;28;20228;-91
2022/04/16 06:08:34;;;;;;;5.37;4.33;;;8.50;99.90;;;;;;5066929;28;20228;-92
2022/04/16 06:11:00;;;;;;;9.60;6.13;;;8.50;99.90;;;;;;5082383;28;20216;-89
2022/04/16 06:13:25;;;;;;;8.13;5.97;;;8.50;99.90;;;;;;5047784;28;21002;-85
2022/04/16 06:15:51;;;;;;;6.30;5.07;;;8.50;99.90;;;;;;5038452;28;20652;-90
2022/04/16 06:18:17;;;;;;;4.73;2.53;;;8.60;99.90;;;;;;5036922;28;20229;-85
2022/04/16 06:20:43;;;;;;;2.80;2.57;;;8.40;99.90;;;;;;5038409;28;20221;-86
2022/04/16 06:23:09;;;;;;;6.77;4.00;;;8.50;99.90;;;;;;5038889;28;20559;-86
2022/04/16 06:25:35;;;;;;;6.43;5.83;;;8.50;99.90;;;;;;5018308;28;20583;-87
2022/04/16 06:28:01;;;;;;;8.07;4.63;;;8.50;99.90;;;;;;5035702;28;20225;-91
2022/04/16 06:30:27;;;;;;;6.23;4.83;;;8.60;99.90;;;;;;5019934;28;20224;-90
2022/04/16 06:32:53;;;;;;;5.93;5.33;;;8.50;99.90;;;;;;5019628;28;20581;-91
2022/04/16 06:35:19;;;;;;;7.80;4.37;;;8.60;99.90;;;;;;5037912;28;20279;-91
2022/04/16 06:37:44;;;;;;;3.53;3.33;;;8.50;99.90;;;;;;5036581;28;20672;-92
2022/04/16 06:40:11;;;;;;;11.20;6.57;;;8.60;99.90;;;;;;5036169;28;21077;-90
2022/04/16 06:42:38;;;;;;;7.47;3.83;;;8.80;99.90;;;;;;5052701;28;20211;-91
2022/04/16 06:45:08;;;;;;;6.03;4.77;;;8.90;99.90;;;;;;5054675;28;20702;-91
2022/04/16 06:47:35;;;;;;;7.73;6.30;;;8.80;99.90;;;;;;5053954;28;20193;-91
2022/04/16 06:50:02;;;;;;;10.93;7.67;;;8.80;99.90;;;;;;5021724;28;20202;-91
2022/04/16 06:52:28;;;;;;;9.17;6.30;;;8.80;99.90;;;;;;5037612;28;20234;-92
2022/04/16 06:54:57;;;;;;;6.33;5.10;;;9.00;99.90;;;;;;5036401;28;20230;-91
2022/04/16 06:57:23;;;;;;;4.27;3.97;;;9.00;99.90;;;;;;5037861;28;20213;-86
2022/04/16 06:59:49;;;;;;;11.30;6.60;;;9.10;99.90;;;;;;5035696;28;20226;-86
2022/04/16 07:02:16;;;;;;;7.63;3.33;;;9.00;99.90;;;;;;5036797;28;20218;-86
2022/04/16 07:04:41;;;;;;;7.30;3.90;;;9.10;99.90;;;;;;5036583;28;20263;-90
2022/04/16 07:07:08;;;;;;;6.60;5.20;;;9.10;99.90;;;;;;5021192;28;20308;-85
2022/04/16 07:09:41;;;;;;;10.93;5.17;;;9.40;99.90;;;;;;5037109;28;20229;-91
2022/04/16 07:12:09;;;;;;;5.70;5.20;;;9.70;99.90;;;;;;5052535;28;20388;-90
2022/04/16 07:14:36;;;;;;;4.50;3.50;;;9.70;99.90;;;;;;5054470;28;20192;-91
2022/04/16 07:17:02;;;;;;;2.40;2.27;;;9.50;99.90;;;;;;5068557;28;20982;-91
2022/04/16 07:19:29;;;;;;;8.30;4.10;;;9.40;99.90;;;;;;5082781;28;20692;-91
2022/04/16 07:21:55;;;;;;;9.33;4.80;;;9.70;99.90;;;;;;5048995;28;20296;-86
2022/04/16 07:24:22;;;;;;;5.77;4.10;;;9.60;99.90;;;;;;5065468;28;20228;-88
2022/04/16 07:26:48;;;;;;;6.00;5.40;;;9.80;99.90;;;;;;5082686;28;20213;-85
2022/04/16 07:29:14;;;;;;;10.40;4.63;;;10.00;99.90;;;;;;5083161;28;20208;-87
2022/04/16 07:31:40;;;;;;;6.73;3.70;;;9.60;99.90;;;;;;5065963;28;20221;-87
2022/04/16 07:34:06;;;;;;;5.57;4.57;;;9.50;99.90;;;;;;5049110;28;20282;-83
2022/04/16 07:36:32;;;;;;;9.87;6.33;;;9.50;99.90;;;;;;5083150;28;20282;-84
2022/04/16 07:38:57;;;;;;;5.30;4.87;;;9.70;99.90;;;;;;5065149;28;20224;-85
2022/04/16 07:41:23;;;;;;;10.17;6.17;;;10.10;99.90;;;;;;5048324;28;20181;-86
2022/04/16 07:43:49;;;;;;;8.80;3.93;;;10.60;99.90;;;;;;5066028;28;20192;-85
2022/04/16 07:46:18;;;;;;;11.63;7.93;;;10.30;99.90;;;;;;5065725;28;20225;-85
2022/04/16 07:48:44;;;;;;;7.70;5.17;;;9.80;99.90;;;;;;5048226;28;20351;-85
2022/04/16 07:51:10;;;;;;;9.37;5.83;;;9.90;99.90;;;;;;5065580;28;20266;-88
2022/04/16 07:53:35;;;;;;;9.00;6.10;;;10.20;99.90;;;;;;5048323;28;20305;-84
2022/04/16 07:56:02;;;;;;;3.57;2.93;;;10.40;99.90;;;;;;5048398;28;20928;-86
2022/04/16 07:58:28;;;;;;;4.60;3.67;;;10.70;99.90;;;;;;5047663;28;20225;-84
2022/04/16 08:00:53;;;;;;;11.40;5.23;;;10.70;99.90;;;;;;5066302;28;20705;-84
2022/04/16 08:03:19;;;;;;;7.57;4.73;;;10.80;99.90;;;;;;5064633;28;20707;-89
2022/04/16 08:05:45;;;;;;;8.40;5.47;;;11.60;99.90;;;;;;5048431;28;20593;-85
2022/04/16 08:08:10;;;;;;;12.03;6.80;;;11.20;99.90;;;;;;5065670;28;21010;-90
2022/04/16 08:10:37;;;;;;;12.67;5.13;;;10.80;99.90;;;;;;5064831;28;20624;-86
2022/04/16 08:13:05;;;;;;;8.90;4.47;;;11.00;99.90;;;;;;5072629;28;20259;-87
2022/04/16 08:15:31;;;;;;;7.97;5.27;;;11.30;99.90;;;;;;5064076;28;20760;-89
2022/04/16 08:17:57;;;;;;;6.93;4.93;;;11.40;99.90;;;;;;5064471;28;20232;-86
2022/04/16 08:20:23;;;;;;;4.00;3.37;;;12.00;99.90;;;;;;5064553;28;20546;-89
2022/04/16 08:22:49;;;;;;;8.27;5.07;;;12.30;99.90;;;;;;5029679;28;20192;-86
2022/04/16 08:27:51;;;;;;;6.40;3.47;;;12.60;99.90;;;;;;5080487;28;20224;-88
2022/04/16 08:30:17;;;;;;;4.90;4.03;;;12.20;99.90;;;;;;5047379;28;20254;-85
2022/04/16 08:32:44;;;;;;;4.60;1.97;;;12.20;99.90;;;;;;5047074;28;20353;-87
2022/04/16 08:35:14;;;;;;;6.20;3.70;;;12.20;99.90;;;;;;5065741;28;20197;-89
2022/04/16 08:37:41;;;;;;;6.10;5.00;;;12.50;99.90;;;;;;5080654;28;20312;-86
2022/04/16 08:40:08;;;;;;;5.47;3.90;;;12.60;99.90;;;;;;5065541;28;20279;-85
2022/04/16 08:42:35;;;;;;;6.47;3.80;;;12.60;99.90;;;;;;5038848;28;20688;-85
2022/04/16 08:45:02;;;;;;;11.37;5.00;;;12.40;99.90;;;;;;5064948;28;21002;-85
2022/04/16 08:47:28;;;;;;;7.77;3.63;;;13.10;99.90;;;;;;5080448;28;20200;-91
2022/04/16 08:49:54;;;;;;;4.07;2.93;;;12.80;99.90;;;;;;5046912;28;20193;-84
2022/04/16 08:52:22;;;;;;;4.23;3.60;;;12.80;99.90;;;;;;5045975;28;20217;-91
2022/04/16 08:54:48;;;;;;;8.30;3.60;;;12.90;99.90;;;;;;5045526;28;20251;-88
2022/04/16 08:57:14;;;;;;;4.27;2.90;;;13.00;99.90;;;;;;5063728;28;20681;-85
2022/04/16 08:59:47;;;;;;;9.33;4.87;;;12.80;99.90;;;;;;5065504;28;20221;-92
2022/04/16 09:02:13;;;;;;;4.30;3.40;;;12.90;99.90;;;;;;5064609;28;20189;-90
2022/04/16 09:04:39;;;;;;;4.87;4.00;;;13.50;99.90;;;;;;5064533;28;20243;-88
2022/04/16 09:07:05;;;;;;;6.97;3.80;;;13.80;99.90;;;;;;5064255;28;20213;-84
2022/04/16 09:09:30;;;;;;;6.53;3.73;;;13.70;99.90;;;;;;5047393;28;20274;-84
2022/04/16 09:11:56;;;;;;;4.67;3.13;;;13.70;99.90;;;;;;5073198;28;20217;-86
2022/04/16 09:14:35;;;;;;;8.90;4.53;;;13.70;99.90;;;;;;5080689;28;20199;-88
2022/04/16 09:17:00;;;;;;;2.00;1.83;;;13.60;99.90;;;;;;5080985;28;20209;-84
2022/04/16 09:19:29;;;;;;;2.93;2.50;;;13.60;99.90;;;;;;5055363;28;20720;-84
2022/04/16 09:21:55;;;;;;;5.50;2.83;;;13.90;99.90;;;;;;5061552;28;20220;-86
2022/04/16 09:24:21;;;;;;;3.20;2.73;;;14.00;99.90;;;;;;5061764;28;20208;-85
2022/04/16 09:26:49;;;;;;;4.27;3.30;;;13.60;99.90;;;;;;5064544;28;20275;-85
2022/04/16 09:29:16;;;;;;;7.83;3.50;;;13.60;99.90;;;;;;5047655;28;20173;-84
2022/04/16 09:31:46;;;;;;;2.90;2.20;;;13.70;99.90;;;;;;5064392;28;20228;-84
2022/04/16 09:34:24;;;;;;;3.33;2.60;;;13.80;99.90;;;;;;5063629;28;20223;-83
2022/04/16 09:36:50;;;;;;;6.30;3.83;;;13.80;99.90;;;;;;5062068;28;20394;-84
2022/04/16 09:39:19;;;;;;;6.93;2.57;;;14.00;99.90;;;;;;5079702;28;20222;-87
2022/04/16 09:41:51;;;;;;;5.77;3.37;;;14.20;99.90;;;;;;5079904;28;20304;-84
2022/04/16 09:44:20;;;;;;;3.13;2.67;;;14.50;99.90;;;;;;5063521;28;20213;-85
2022/04/16 09:46:46;;;;;;;3.20;2.40;;;14.30;99.90;;;;;;5046562;28;20201;-85
2022/04/16 09:49:14;;;;;;;2.83;1.97;;;14.20;99.90;;;;;;5064704;28;20244;-86
2022/04/16 09:51:42;;;;;;;3.27;1.93;;;14.40;99.90;;;;;;5080805;28;20217;-87
2022/04/16 09:54:09;;;;;;;2.17;1.97;;;14.20;99.90;;;;;;5080682;28;20229;-86
2022/04/16 09:56:36;;;;;;;1.20;1.13;;;14.20;99.90;;;;;;5063265;28;20200;-89
2022/04/16 09:59:05;;;;;;;0.80;0.80;;;13.70;99.90;;;;;;5080182;28;20268;-84
2022/04/16 10:01:32;;;;;;;3.47;2.50;;;13.80;99.90;;;;;;5065332;28;20238;-85
2022/04/16 10:04:00;;;;;;;2.67;1.90;;;13.80;99.90;;;;;;5058766;28;20225;-85
2022/04/16 10:06:28;;;;;;;1.20;0.70;;;14.30;99.90;;;;;;5056475;28;20225;-84
2022/04/16 10:08:55;;;;;;;4.67;2.67;;;14.00;99.90;;;;;;5050079;28;20217;-86
2022/04/16 10:12:59;;;;;;;6.97;2.70;;;14.20;99.90;;;;;;5083503;28;20261;-88
2022/04/16 10:14:58;;;;;;;4.43;1.80;;;14.30;99.90;;;;;;5067520;28;20192;-85
2022/04/16 10:17:30;;;;;;;1.50;1.40;;;14.20;99.90;;;;;;5044634;28;20211;-84
2022/04/16 10:20:09;;;;;;;1.57;1.07;;;14.10;99.90;;;;;;5050762;28;20177;-86
2022/04/16 10:22:36;;;;;;;0.80;0.80;;;14.10;99.90;;;;;;5083612;28;20271;-87
2022/04/16 10:25:02;;;;;;;2.30;1.30;;;14.60;99.90;;;;;;5066342;28;20227;-85
2022/04/16 10:27:40;;;;;;;2.17;1.60;;;14.20;99.90;;;;;;5048909;28;20217;-86
2022/04/16 10:30:12;;;;;;;1.17;1.07;;;14.20;99.90;;;;;;5082764;28;20232;-85
2022/04/16 10:32:39;;;;;;;2.83;2.13;;;14.20;99.90;;;;;;5048790;28;20221;-85
2022/04/16 10:35:06;;;;;;;3.87;2.10;;;14.40;99.90;;;;;;5066408;28;20181;-87
2022/04/16 10:37:40;;;;;;;0.80;0.80;;;14.90;99.90;;;;;;5064230;28;20224;-85
2022/04/16 10:40:23;;;;;;;1.40;1.30;;;14.30;99.90;;;;;;5065787;28;20228;-86
2022/04/16 10:42:59;;;;;;;2.27;1.20;;;14.30;99.90;;;;;;5082846;28;20216;-85
2022/04/16 10:45:25;;;;;;;2.40;1.23;;;14.20;99.90;;;;;;5048211;28;20577;-87
2022/04/16 10:47:54;;;;;;;2.07;1.67;;;14.20;99.90;;;;;;5031488;28;20700;-85
2022/04/16 10:50:21;;;;;;;2.70;1.63;;;14.10;99.90;;;;;;5064708;28;20268;-85
2022/04/16 10:52:57;;;;;;;2.50;1.90;;;14.30;99.90;;;;;;5065112;28;20201;-86
2022/04/16 10:55:36;;;;;;;1.70;1.47;;;14.60;99.90;;;;;;5065663;28;20225;-87
2022/04/16 10:58:08;;;;;;;1.27;0.73;;;14.50;99.90;;;;;;5063894;28;20325;-89
2022/04/16 11:00:36;;;;;;;2.67;1.70;;;14.50;99.90;;;;;;5065843;28;20327;-85
2022/04/16 11:03:18;;;;;;;1.67;1.47;;;14.60;99.90;;;;;;5066828;28;20220;-89
2022/04/16 11:05:45;;;;;;;1.60;1.50;;;14.60;99.90;;;;;;5082663;28;20311;-86
2022/04/16 11:08:12;;;;;;;1.73;0.80;;;14.50;99.90;;;;;;5066724;28;20200;-88
2022/04/16 11:10:39;;;;;;;0.70;0.70;;;14.40;99.90;;;;;;5065993;28;20266;-86
2022/04/16 11:13:05;;;;;;;1.70;1.20;;;14.40;99.90;;;;;;5048166;28;20562;-85
2022/04/16 11:15:32;;;;;;;1.60;1.10;;;14.70;99.90;;;;;;5065309;28;20252;-85
2022/04/16 11:18:00;;;;;;;4.57;2.10;;;14.60;99.90;;;;;;5066584;28;20248;-85
2022/04/16 11:20:27;;;;;;;1.30;1.10;;;14.40;99.90;;;;;;5048605;28;20723;-84
2022/04/16 11:22:56;;;;;;;1.37;1.03;;;14.70;99.90;;;;;;5048697;28;20669;-88
2022/04/16 11:25:25;;;;;;;0.80;0.80;;;14.60;99.90;;;;;;5060293;28;20233;-84
2022/04/16 11:36:11;;;;;;;2.90;1.60;;;14.40;99.90;;;;;;5079646;28;20232;-85
2022/04/16 11:38:41;;;;;;;1.57;1.47;;;14.60;99.90;;;;;;5066402;28;20220;-88
2022/04/16 11:41:10;;;;;;;1.17;1.07;;;14.50;99.90;;;;;;5082627;28;20198;-85
2022/04/16 11:43:38;;;;;;;1.10;1.00;;;14.50;99.90;;;;;;5048341;28;20225;-85
2022/04/16 11:46:11;;;;;;;3.97;1.30;;;14.40;99.90;;;;;;5048638;28;20236;-84
2022/04/16 11:48:42;;;;;;;1.60;1.27;;;14.30;99.90;;;;;;5038916;28;20308;-85
2022/04/16 11:51:11;;;;;;;1.03;1.00;;;14.50;99.90;;;;;;5074109;28;20271;-88
2022/04/16 11:53:50;;;;;;;2.77;1.40;;;14.40;99.90;;;;;;5081702;28;20275;-85
2022/04/16 11:56:22;;;;;;;1.30;1.20;;;14.10;99.90;;;;;;5048217;28;20577;-85
2022/04/16 11:58:50;;;;;;;2.60;1.60;;;14.40;99.90;;;;;;5047892;28;20665;-88
2022/04/16 12:01:20;;;;;;;2.33;1.10;;;14.60;99.90;;;;;;5081488;28;20249;-85
2022/04/16 12:03:46;;;;;;;0.77;0.77;;;14.70;99.90;;;;;;5066370;28;20221;-86
2022/04/16 12:06:13;;;;;;;2.60;1.40;;;14.70;99.90;;;;;;5073292;28;21334;-86
2022/04/16 12:08:49;;;;;;;2.27;1.57;;;14.40;99.90;;;;;;5066326;28;20213;-92
2022/04/16 12:11:18;;;;;;;1.87;1.50;;;14.10;99.90;;;;;;5049892;28;20196;-91
2022/04/16 12:13:44;;;;;;;1.53;1.43;;;14.10;99.90;;;;;;5082289;28;20255;-88
2022/04/16 12:16:13;;;;;;;1.27;0.77;;;14.60;99.90;;;;;;5044930;28;20280;-91
2022/04/16 12:18:41;;;;;;;2.20;1.73;;;14.30;99.90;;;;;;5028790;28;20225;-92
2022/04/16 12:21:10;;;;;;;3.97;1.77;;;14.40;99.90;;;;;;5046487;28;20308;-91
2022/04/16 12:23:38;;;;;;;1.80;1.37;;;14.40;99.90;;;;;;5045690;28;20186;-91
2022/04/16 12:26:08;;;;;;;1.60;1.47;;;14.30;99.90;;;;;;5044723;28;20225;-92
2022/04/16 12:28:39;;;;;;;2.57;1.27;;;14.50;99.90;;;;;;5061447;28;20986;-91
2022/04/16 12:31:06;;;;;;;1.63;1.53;;;14.30;99.90;;;;;;5061404;28;20329;-91
2022/04/16 12:33:32;;;;;;;1.60;1.50;;;14.40;99.90;;;;;;5042992;28;20221;-90
2022/04/16 12:35:59;;;;;;;0.97;0.90;;;14.50;99.90;;;;;;5042214;28;20307;-92
2022/04/16 12:38:25;;;;;;;1.37;1.07;;;14.60;99.90;;;;;;5042586;28;20240;-90
2022/04/16 12:41:04;;;;;;;2.60;1.30;;;14.50;99.90;;;;;;5060536;28;20184;-89
2022/04/16 12:43:29;;;;;;;1.10;1.00;;;14.50;99.90;;;;;;5044517;28;20225;-87
2022/04/16 12:45:55;;;;;;;0.60;0.50;;;14.70;99.90;;;;;;5027861;28;20237;-87
2022/04/16 12:48:21;;;;;;;1.33;1.23;;;14.70;99.90;;;;;;5044575;28;20284;-87
2022/04/16 12:50:46;;;;;;;2.47;1.17;;;14.50;99.90;;;;;;5044740;28;20754;-87
2022/04/16 12:53:12;;;;;;;0.97;0.87;;;14.40;99.90;;;;;;5026246;28;20203;-87
2022/04/16 12:55:38;;;;;;;1.47;0.90;;;14.80;99.90;;;;;;5026654;28;20246;-89
2022/04/16 12:58:05;;;;;;;1.23;1.03;;;14.40;99.90;;;;;;5028112;28;20858;-87
2022/04/16 13:00:31;;;;;;;0.60;0.60;;;14.50;99.90;;;;;;5044195;28;20222;-88
2022/04/16 13:02:59;;;;;;;0.50;0.43;;;14.60;99.90;;;;;;5044674;28;20218;-87
2022/04/16 13:05:26;;;;;;;1.43;0.67;;;14.80;99.90;;;;;;5044960;28;20229;-86
2022/04/16 13:07:52;;;;;;;0.70;0.70;;;14.60;99.90;;;;;;5044597;28;20185;-88
2022/04/16 13:10:19;;;;;;;1.50;0.90;;;14.30;99.90;;;;;;5035222;28;20210;-87
2022/04/16 13:12:45;;;;;;;1.43;0.93;;;14.60;99.90;;;;;;5028194;28;20224;-84
2022/04/16 13:15:11;;;;;;;0.97;0.97;;;14.60;99.90;;;;;;5046671;28;20964;-88